sensor_id;sensor_type;location;lat;lon;timestamp;P1;durP1;ratioP1;P2;durP2;ratioP2
70450;SDS011;58869;51.982;4.450;2023-05-07T00:02:15;29.86;;;29.85;;
70450;SDS011;58869;51.982;4.450;2023-05-07T00:04:43;29.99;;;29.80;;
70450;SDS011;58869;51.982;4.450;2023-05-07T00:07:12;30.07;;;29.80;;
70450;SDS011;58869;51.982;4.450;2023-05-07T00:09:38;29.08;;;29.00;;
70450;SDS011;58869;51.982;4.450;2023-05-07T00:12:03;29.95;;;29.73;;
70450;SDS011;58869;51.982;4.450;2023-05-07T00:14:29;28.96;;;28.63;;
70450;SDS011;58869;51.982;4.450;2023-05-07T00:29:03;28.94;;;28.70;;
70450;SDS011;58869;51.982;4.450;2023-05-07T00:31:28;28.82;;;28.51;;
70450;SDS011;58869;51.982;4.450;2023-05-07T00:34:03;29.38;;;29.16;;
70450;SDS011;58869;51.982;4.450;2023-05-07T00:36:28;29.57;;;29.33;;
70450;SDS011;58869;51.982;4.450;2023-05-07T00:38:56;30.01;;;29.84;;
70450;SDS011;58869;51.982;4.450;2023-05-07T00:41:25;30.06;;;29.61;;
70450;SDS011;58869;51.982;4.450;2023-05-07T00:47:01;29.65;;;29.35;;
70450;SDS011;58869;51.982;4.450;2023-05-07T00:49:35;29.96;;;29.75;;
70450;SDS011;58869;51.982;4.450;2023-05-07T00:52:17;30.46;;;30.01;;
70450;SDS011;58869;51.982;4.450;2023-05-07T00:54:53;29.67;;;29.55;;
70450;SDS011;58869;51.982;4.450;2023-05-07T00:57:31;30.39;;;30.31;;
70450;SDS011;58869;51.982;4.450;2023-05-07T01:00:00;31.84;;;31.60;;
70450;SDS011;58869;51.982;4.450;2023-05-07T01:02:32;32.75;;;32.53;;
70450;SDS011;58869;51.982;4.450;2023-05-07T01:05:05;33.24;;;32.96;;
70450;SDS011;58869;51.982;4.450;2023-05-07T01:07:53;32.96;;;32.80;;
70450;SDS011;58869;51.982;4.450;2023-05-07T01:14:19;32.79;;;32.63;;
70450;SDS011;58869;51.982;4.450;2023-05-07T01:16:58;32.77;;;32.24;;
70450;SDS011;58869;51.982;4.450;2023-05-07T01:19:24;32.82;;;32.52;;
70450;SDS011;58869;51.982;4.450;2023-05-07T01:21:50;32.61;;;32.31;;
70450;SDS011;58869;51.982;4.450;2023-05-07T01:24:19;32.95;;;32.55;;
70450;SDS011;58869;51.982;4.450;2023-05-07T01:27:02;32.73;;;32.12;;
70450;SDS011;58869;51.982;4.450;2023-05-07T01:29:28;32.13;;;31.80;;
70450;SDS011;58869;51.982;4.450;2023-05-07T01:31:54;32.17;;;31.24;;
70450;SDS011;58869;51.982;4.450;2023-05-07T01:34:25;30.51;;;30.39;;
70450;SDS011;58869;51.982;4.450;2023-05-07T01:36:54;29.27;;;28.96;;
70450;SDS011;58869;51.982;4.450;2023-05-07T01:39:26;28.94;;;28.78;;
70450;SDS011;58869;51.982;4.450;2023-05-07T01:41:54;27.42;;;27.42;;
70450;SDS011;58869;51.982;4.450;2023-05-07T01:44:21;26.98;;;26.92;;
70450;SDS011;58869;51.982;4.450;2023-05-07T01:46:47;27.70;;;27.16;;
70450;SDS011;58869;51.982;4.450;2023-05-07T01:49:17;25.88;;;25.88;;
70450;SDS011;58869;51.982;4.450;2023-05-07T01:51:43;26.85;;;26.78;;
70450;SDS011;58869;51.982;4.450;2023-05-07T01:54:09;25.78;;;25.63;;
70450;SDS011;58869;51.982;4.450;2023-05-07T01:56:35;25.92;;;25.91;;
70450;SDS011;58869;51.982;4.450;2023-05-07T01:59:00;26.75;;;26.71;;
70450;SDS011;58869;51.982;4.450;2023-05-07T02:01:27;26.39;;;26.39;;
70450;SDS011;58869;51.982;4.450;2023-05-07T02:03:52;27.10;;;26.95;;
70450;SDS011;58869;51.982;4.450;2023-05-07T02:06:19;25.37;;;25.33;;
70450;SDS011;58869;51.982;4.450;2023-05-07T02:08:47;26.13;;;26.12;;
70450;SDS011;58869;51.982;4.450;2023-05-07T02:11:12;25.61;;;25.61;;
70450;SDS011;58869;51.982;4.450;2023-05-07T02:13:38;26.87;;;26.65;;
70450;SDS011;58869;51.982;4.450;2023-05-07T02:16:03;27.19;;;26.94;;
70450;SDS011;58869;51.982;4.450;2023-05-07T02:18:29;27.72;;;27.59;;
70450;SDS011;58869;51.982;4.450;2023-05-07T02:20:55;27.60;;;27.43;;
70450;SDS011;58869;51.982;4.450;2023-05-07T02:23:21;27.05;;;27.05;;
70450;SDS011;58869;51.982;4.450;2023-05-07T02:25:46;28.04;;;28.01;;
70450;SDS011;58869;51.982;4.450;2023-05-07T02:28:13;28.70;;;28.70;;
70450;SDS011;58869;51.982;4.450;2023-05-07T02:30:38;29.56;;;29.56;;
70450;SDS011;58869;51.982;4.450;2023-05-07T02:33:04;29.65;;;29.65;;
70450;SDS011;58869;51.982;4.450;2023-05-07T02:35:30;29.24;;;29.24;;
70450;SDS011;58869;51.982;4.450;2023-05-07T02:37:55;29.08;;;29.08;;
70450;SDS011;58869;51.982;4.450;2023-05-07T02:40:20;29.03;;;29.03;;
70450;SDS011;58869;51.982;4.450;2023-05-07T02:42:46;28.64;;;28.64;;
70450;SDS011;58869;51.982;4.450;2023-05-07T02:45:11;28.47;;;28.47;;
70450;SDS011;58869;51.982;4.450;2023-05-07T02:47:39;28.74;;;28.74;;
70450;SDS011;58869;51.982;4.450;2023-05-07T02:50:05;28.06;;;28.06;;
70450;SDS011;58869;51.982;4.450;2023-05-07T02:52:31;27.83;;;27.81;;
70450;SDS011;58869;51.982;4.450;2023-05-07T02:54:57;28.75;;;28.75;;
70450;SDS011;58869;51.982;4.450;2023-05-07T02:57:22;28.38;;;28.38;;
70450;SDS011;58869;51.982;4.450;2023-05-07T02:59:47;27.93;;;27.93;;
70450;SDS011;58869;51.982;4.450;2023-05-07T03:02:13;27.81;;;27.81;;
70450;SDS011;58869;51.982;4.450;2023-05-07T03:04:39;27.97;;;27.97;;
70450;SDS011;58869;51.982;4.450;2023-05-07T03:07:04;27.93;;;27.93;;
70450;SDS011;58869;51.982;4.450;2023-05-07T03:09:32;27.58;;;27.58;;
70450;SDS011;58869;51.982;4.450;2023-05-07T03:11:57;27.85;;;27.85;;
70450;SDS011;58869;51.982;4.450;2023-05-07T03:14:23;27.94;;;27.93;;
70450;SDS011;58869;51.982;4.450;2023-05-07T03:16:49;27.55;;;27.55;;
70450;SDS011;58869;51.982;4.450;2023-05-07T03:19:15;28.16;;;28.16;;
70450;SDS011;58869;51.982;4.450;2023-05-07T03:21:40;27.25;;;27.25;;
70450;SDS011;58869;51.982;4.450;2023-05-07T03:24:06;27.02;;;27.02;;
70450;SDS011;58869;51.982;4.450;2023-05-07T03:26:35;26.75;;;26.75;;
70450;SDS011;58869;51.982;4.450;2023-05-07T03:29:03;27.26;;;27.26;;
70450;SDS011;58869;51.982;4.450;2023-05-07T03:31:40;26.82;;;26.82;;
70450;SDS011;58869;51.982;4.450;2023-05-07T03:34:06;26.09;;;26.09;;
70450;SDS011;58869;51.982;4.450;2023-05-07T03:36:34;26.83;;;26.83;;
70450;SDS011;58869;51.982;4.450;2023-05-07T03:39:02;26.55;;;26.55;;
70450;SDS011;58869;51.982;4.450;2023-05-07T03:41:31;26.23;;;26.23;;
70450;SDS011;58869;51.982;4.450;2023-05-07T03:44:09;26.57;;;26.57;;
70450;SDS011;58869;51.982;4.450;2023-05-07T03:46:35;26.41;;;26.41;;
70450;SDS011;58869;51.982;4.450;2023-05-07T03:49:05;25.95;;;25.95;;
70450;SDS011;58869;51.982;4.450;2023-05-07T03:51:33;27.47;;;27.47;;
70450;SDS011;58869;51.982;4.450;2023-05-07T03:54:03;26.53;;;26.53;;
70450;SDS011;58869;51.982;4.450;2023-05-07T03:56:32;26.64;;;26.64;;
70450;SDS011;58869;51.982;4.450;2023-05-07T04:01:46;26.79;;;26.79;;
70450;SDS011;58869;51.982;4.450;2023-05-07T04:04:11;26.72;;;26.72;;
70450;SDS011;58869;51.982;4.450;2023-05-07T04:06:36;26.80;;;26.80;;
70450;SDS011;58869;51.982;4.450;2023-05-07T04:09:02;26.50;;;26.50;;
70450;SDS011;58869;51.982;4.450;2023-05-07T04:11:28;26.46;;;26.46;;
70450;SDS011;58869;51.982;4.450;2023-05-07T04:14:10;26.67;;;26.67;;
70450;SDS011;58869;51.982;4.450;2023-05-07T04:16:36;25.88;;;25.88;;
70450;SDS011;58869;51.982;4.450;2023-05-07T04:19:01;25.56;;;25.56;;
70450;SDS011;58869;51.982;4.450;2023-05-07T04:21:32;25.75;;;25.75;;
70450;SDS011;58869;51.982;4.450;2023-05-07T04:24:03;25.67;;;25.67;;
70450;SDS011;58869;51.982;4.450;2023-05-07T04:26:38;24.64;;;24.64;;
70450;SDS011;58869;51.982;4.450;2023-05-07T04:29:04;24.49;;;24.49;;
70450;SDS011;58869;51.982;4.450;2023-05-07T04:31:34;24.92;;;24.92;;
70450;SDS011;58869;51.982;4.450;2023-05-07T04:34:11;24.97;;;24.97;;
70450;SDS011;58869;51.982;4.450;2023-05-07T04:36:37;24.91;;;24.91;;
70450;SDS011;58869;51.982;4.450;2023-05-07T04:39:03;23.79;;;23.79;;
70450;SDS011;58869;51.982;4.450;2023-05-07T04:41:29;24.63;;;24.63;;
70450;SDS011;58869;51.982;4.450;2023-05-07T04:44:08;23.90;;;23.90;;
70450;SDS011;58869;51.982;4.450;2023-05-07T04:46:34;24.04;;;24.04;;
70450;SDS011;58869;51.982;4.450;2023-05-07T04:48:59;23.09;;;23.09;;
70450;SDS011;58869;51.982;4.450;2023-05-07T04:51:25;23.24;;;23.24;;
70450;SDS011;58869;51.982;4.450;2023-05-07T04:54:09;23.35;;;23.35;;
70450;SDS011;58869;51.982;4.450;2023-05-07T04:56:35;23.53;;;23.53;;
70450;SDS011;58869;51.982;4.450;2023-05-07T04:59:08;22.60;;;22.60;;
70450;SDS011;58869;51.982;4.450;2023-05-07T05:01:38;22.50;;;22.50;;
70450;SDS011;58869;51.982;4.450;2023-05-07T05:04:04;22.63;;;22.63;;
70450;SDS011;58869;51.982;4.450;2023-05-07T05:06:34;22.55;;;22.55;;
70450;SDS011;58869;51.982;4.450;2023-05-07T05:09:01;21.95;;;21.95;;
70450;SDS011;58869;51.982;4.450;2023-05-07T05:11:49;22.06;;;22.06;;
70450;SDS011;58869;51.982;4.450;2023-05-07T05:14:16;21.86;;;21.86;;
70450;SDS011;58869;51.982;4.450;2023-05-07T05:17:10;21.08;;;21.08;;
70450;SDS011;58869;51.982;4.450;2023-05-07T05:19:39;21.57;;;21.57;;
70450;SDS011;58869;51.982;4.450;2023-05-07T05:22:14;21.96;;;21.96;;
70450;SDS011;58869;51.982;4.450;2023-05-07T05:24:49;21.13;;;21.13;;
70450;SDS011;58869;51.982;4.450;2023-05-07T05:27:34;21.46;;;21.46;;
70450;SDS011;58869;51.982;4.450;2023-05-07T05:30:22;21.60;;;21.60;;
70450;SDS011;58869;51.982;4.450;2023-05-07T05:33:10;21.45;;;21.45;;
70450;SDS011;58869;51.982;4.450;2023-05-07T05:35:49;22.42;;;22.42;;
70450;SDS011;58869;51.982;4.450;2023-05-07T05:41:47;21.51;;;21.51;;
70450;SDS011;58869;51.982;4.450;2023-05-07T05:44:20;21.87;;;21.87;;
70450;SDS011;58869;51.982;4.450;2023-05-07T05:46:46;21.49;;;21.49;;
70450;SDS011;58869;51.982;4.450;2023-05-07T05:49:11;21.62;;;21.62;;
70450;SDS011;58869;51.982;4.450;2023-05-07T05:51:40;22.04;;;22.04;;
70450;SDS011;58869;51.982;4.450;2023-05-07T05:54:05;21.97;;;21.97;;
70450;SDS011;58869;51.982;4.450;2023-05-07T05:56:31;22.35;;;22.35;;
70450;SDS011;58869;51.982;4.450;2023-05-07T05:58:58;22.04;;;22.04;;
70450;SDS011;58869;51.982;4.450;2023-05-07T06:01:24;22.29;;;22.29;;
70450;SDS011;58869;51.982;4.450;2023-05-07T06:03:51;23.24;;;23.24;;
70450;SDS011;58869;51.982;4.450;2023-05-07T06:06:17;22.71;;;22.71;;
70450;SDS011;58869;51.982;4.450;2023-05-07T06:08:42;22.91;;;22.91;;
70450;SDS011;58869;51.982;4.450;2023-05-07T06:11:08;23.01;;;23.01;;
70450;SDS011;58869;51.982;4.450;2023-05-07T06:13:33;22.71;;;22.71;;
70450;SDS011;58869;51.982;4.450;2023-05-07T06:15:59;23.32;;;23.32;;
70450;SDS011;58869;51.982;4.450;2023-05-07T06:18:24;22.84;;;22.84;;
70450;SDS011;58869;51.982;4.450;2023-05-07T06:20:51;22.59;;;22.59;;
70450;SDS011;58869;51.982;4.450;2023-05-07T06:23:19;22.67;;;22.67;;
70450;SDS011;58869;51.982;4.450;2023-05-07T06:25:50;22.81;;;22.81;;
70450;SDS011;58869;51.982;4.450;2023-05-07T06:28:16;23.29;;;23.29;;
70450;SDS011;58869;51.982;4.450;2023-05-07T06:30:42;22.45;;;22.45;;
70450;SDS011;58869;51.982;4.450;2023-05-07T06:33:07;22.54;;;22.54;;
70450;SDS011;58869;51.982;4.450;2023-05-07T06:35:33;22.06;;;22.06;;
70450;SDS011;58869;51.982;4.450;2023-05-07T06:40:49;21.83;;;21.83;;
70450;SDS011;58869;51.982;4.450;2023-05-07T06:43:17;21.56;;;21.56;;
70450;SDS011;58869;51.982;4.450;2023-05-07T06:48:39;21.84;;;21.84;;
70450;SDS011;58869;51.982;4.450;2023-05-07T06:51:08;21.35;;;21.35;;
70450;SDS011;58869;51.982;4.450;2023-05-07T06:53:38;21.88;;;21.88;;
70450;SDS011;58869;51.982;4.450;2023-05-07T06:56:04;22.08;;;22.08;;
70450;SDS011;58869;51.982;4.450;2023-05-07T06:58:36;21.41;;;21.41;;
70450;SDS011;58869;51.982;4.450;2023-05-07T07:01:07;21.61;;;21.61;;
70450;SDS011;58869;51.982;4.450;2023-05-07T07:03:40;21.21;;;21.21;;
70450;SDS011;58869;51.982;4.450;2023-05-07T07:06:18;20.37;;;20.37;;
70450;SDS011;58869;51.982;4.450;2023-05-07T07:08:49;20.55;;;20.55;;
70450;SDS011;58869;51.982;4.450;2023-05-07T07:14:55;19.97;;;19.97;;
70450;SDS011;58869;51.982;4.450;2023-05-07T07:18:08;20.22;;;20.22;;
70450;SDS011;58869;51.982;4.450;2023-05-07T07:20:34;19.47;;;19.47;;
70450;SDS011;58869;51.982;4.450;2023-05-07T07:23:02;18.52;;;18.52;;
70450;SDS011;58869;51.982;4.450;2023-05-07T07:25:33;18.43;;;18.43;;
70450;SDS011;58869;51.982;4.450;2023-05-07T07:27:59;18.60;;;18.60;;
70450;SDS011;58869;51.982;4.450;2023-05-07T07:33:38;18.58;;;18.58;;
70450;SDS011;58869;51.982;4.450;2023-05-07T07:36:29;17.65;;;17.65;;
70450;SDS011;58869;51.982;4.450;2023-05-07T07:38:55;18.04;;;18.04;;
70450;SDS011;58869;51.982;4.450;2023-05-07T07:41:38;18.86;;;18.86;;
70450;SDS011;58869;51.982;4.450;2023-05-07T07:44:12;18.02;;;18.02;;
70450;SDS011;58869;51.982;4.450;2023-05-07T07:56:09;16.41;;;16.41;;
70450;SDS011;58869;51.982;4.450;2023-05-07T08:01:45;17.50;;;17.50;;
70450;SDS011;58869;51.982;4.450;2023-05-07T08:04:16;17.31;;;17.31;;
70450;SDS011;58869;51.982;4.450;2023-05-07T08:06:41;16.99;;;16.99;;
70450;SDS011;58869;51.982;4.450;2023-05-07T08:09:07;16.56;;;16.56;;
70450;SDS011;58869;51.982;4.450;2023-05-07T08:11:33;17.82;;;17.82;;
70450;SDS011;58869;51.982;4.450;2023-05-07T08:14:11;17.18;;;17.18;;
70450;SDS011;58869;51.982;4.450;2023-05-07T08:16:37;17.36;;;17.36;;
70450;SDS011;58869;51.982;4.450;2023-05-07T08:26:24;17.11;;;17.11;;
70450;SDS011;58869;51.982;4.450;2023-05-07T08:29:23;17.96;;;17.96;;
70450;SDS011;58869;51.982;4.450;2023-05-07T08:31:56;16.31;;;16.31;;
70450;SDS011;58869;51.982;4.450;2023-05-07T08:34:22;16.82;;;16.82;;
70450;SDS011;58869;51.982;4.450;2023-05-07T08:36:47;17.02;;;17.02;;
70450;SDS011;58869;51.982;4.450;2023-05-07T08:39:15;18.67;;;18.67;;
70450;SDS011;58869;51.982;4.450;2023-05-07T08:41:44;17.33;;;17.33;;
70450;SDS011;58869;51.982;4.450;2023-05-07T08:44:11;17.43;;;17.43;;
70450;SDS011;58869;51.982;4.450;2023-05-07T08:47:09;17.45;;;17.45;;
70450;SDS011;58869;51.982;4.450;2023-05-07T08:49:41;18.87;;;18.87;;
70450;SDS011;58869;51.982;4.450;2023-05-07T08:52:11;19.40;;;19.40;;
70450;SDS011;58869;51.982;4.450;2023-05-07T08:54:37;18.09;;;18.09;;
70450;SDS011;58869;51.982;4.450;2023-05-07T08:57:03;17.90;;;17.90;;
70450;SDS011;58869;51.982;4.450;2023-05-07T08:59:28;19.35;;;19.35;;
70450;SDS011;58869;51.982;4.450;2023-05-07T09:01:55;19.74;;;19.74;;
70450;SDS011;58869;51.982;4.450;2023-05-07T09:04:21;20.53;;;20.53;;
70450;SDS011;58869;51.982;4.450;2023-05-07T09:06:47;19.11;;;19.11;;
70450;SDS011;58869;51.982;4.450;2023-05-07T09:09:16;19.39;;;19.39;;
70450;SDS011;58869;51.982;4.450;2023-05-07T09:11:43;18.05;;;18.05;;
70450;SDS011;58869;51.982;4.450;2023-05-07T09:14:09;17.54;;;17.54;;
70450;SDS011;58869;51.982;4.450;2023-05-07T09:16:34;18.85;;;18.85;;
70450;SDS011;58869;51.982;4.450;2023-05-07T09:19:03;19.50;;;19.50;;
70450;SDS011;58869;51.982;4.450;2023-05-07T09:21:29;18.52;;;18.52;;
70450;SDS011;58869;51.982;4.450;2023-05-07T09:23:55;17.48;;;17.48;;
70450;SDS011;58869;51.982;4.450;2023-05-07T09:26:21;18.42;;;18.42;;
70450;SDS011;58869;51.982;4.450;2023-05-07T09:28:47;19.51;;;19.51;;
70450;SDS011;58869;51.982;4.450;2023-05-07T09:31:13;19.01;;;19.01;;
70450;SDS011;58869;51.982;4.450;2023-05-07T09:33:38;19.67;;;19.67;;
70450;SDS011;58869;51.982;4.450;2023-05-07T09:36:05;20.00;;;20.00;;
70450;SDS011;58869;51.982;4.450;2023-05-07T09:38:32;18.17;;;18.17;;
70450;SDS011;58869;51.982;4.450;2023-05-07T09:41:05;19.30;;;19.30;;
70450;SDS011;58869;51.982;4.450;2023-05-07T09:43:36;18.62;;;18.62;;
70450;SDS011;58869;51.982;4.450;2023-05-07T09:46:03;18.46;;;18.46;;
70450;SDS011;58869;51.982;4.450;2023-05-07T09:48:35;17.72;;;17.72;;
70450;SDS011;58869;51.982;4.450;2023-05-07T09:51:04;18.61;;;18.61;;
70450;SDS011;58869;51.982;4.450;2023-05-07T09:53:36;19.75;;;19.75;;
70450;SDS011;58869;51.982;4.450;2023-05-07T09:56:03;18.65;;;18.65;;
70450;SDS011;58869;51.982;4.450;2023-05-07T09:58:28;16.88;;;16.88;;
70450;SDS011;58869;51.982;4.450;2023-05-07T10:00:55;14.13;;;14.13;;
70450;SDS011;58869;51.982;4.450;2023-05-07T10:03:22;12.59;;;12.59;;
70450;SDS011;58869;51.982;4.450;2023-05-07T10:05:49;11.41;;;11.41;;
70450;SDS011;58869;51.982;4.450;2023-05-07T10:08:15;11.02;;;11.02;;
70450;SDS011;58869;51.982;4.450;2023-05-07T10:10:42;12.24;;;12.24;;
70450;SDS011;58869;51.982;4.450;2023-05-07T10:13:07;12.93;;;12.93;;
70450;SDS011;58869;51.982;4.450;2023-05-07T10:15:36;12.82;;;12.82;;
70450;SDS011;58869;51.982;4.450;2023-05-07T10:18:02;13.02;;;13.02;;
70450;SDS011;58869;51.982;4.450;2023-05-07T10:20:28;12.21;;;12.21;;
70450;SDS011;58869;51.982;4.450;2023-05-07T10:22:58;12.21;;;12.21;;
70450;SDS011;58869;51.982;4.450;2023-05-07T10:25:28;11.18;;;11.18;;
70450;SDS011;58869;51.982;4.450;2023-05-07T10:27:57;10.72;;;10.72;;
70450;SDS011;58869;51.982;4.450;2023-05-07T10:33:23;10.59;;;10.59;;
70450;SDS011;58869;51.982;4.450;2023-05-07T10:35:52;9.34;;;9.34;;
70450;SDS011;58869;51.982;4.450;2023-05-07T10:38:24;5.95;;;5.95;;
70450;SDS011;58869;51.982;4.450;2023-05-07T10:40:50;10.30;;;10.30;;
70450;SDS011;58869;51.982;4.450;2023-05-07T10:43:16;9.39;;;9.39;;
70450;SDS011;58869;51.982;4.450;2023-05-07T10:45:42;10.25;;;10.25;;
70450;SDS011;58869;51.982;4.450;2023-05-07T10:48:11;8.24;;;8.24;;
70450;SDS011;58869;51.982;4.450;2023-05-07T10:50:38;6.58;;;6.58;;
70450;SDS011;58869;51.982;4.450;2023-05-07T10:55:47;6.15;;;6.15;;
70450;SDS011;58869;51.982;4.450;2023-05-07T11:00:46;5.96;;;5.96;;
70450;SDS011;58869;51.982;4.450;2023-05-07T11:03:11;5.35;;;5.35;;
70450;SDS011;58869;51.982;4.450;2023-05-07T11:05:38;6.26;;;6.26;;
70450;SDS011;58869;51.982;4.450;2023-05-07T11:08:04;7.27;;;7.27;;
70450;SDS011;58869;51.982;4.450;2023-05-07T11:10:50;7.96;;;7.96;;
70450;SDS011;58869;51.982;4.450;2023-05-07T11:16:22;5.92;;;5.92;;
70450;SDS011;58869;51.982;4.450;2023-05-07T11:18:51;6.44;;;6.44;;
70450;SDS011;58869;51.982;4.450;2023-05-07T11:24:05;8.87;;;8.87;;
70450;SDS011;58869;51.982;4.450;2023-05-07T11:26:48;8.57;;;8.57;;
70450;SDS011;58869;51.982;4.450;2023-05-07T11:29:15;8.68;;;8.68;;
70450;SDS011;58869;51.982;4.450;2023-05-07T11:31:44;9.02;;;9.02;;
70450;SDS011;58869;51.982;4.450;2023-05-07T11:34:23;11.04;;;11.04;;
70450;SDS011;58869;51.982;4.450;2023-05-07T11:36:50;11.06;;;11.06;;
70450;SDS011;58869;51.982;4.450;2023-05-07T11:41:52;10.70;;;10.70;;
70450;SDS011;58869;51.982;4.450;2023-05-07T11:44:17;10.27;;;10.27;;
70450;SDS011;58869;51.982;4.450;2023-05-07T11:46:46;9.90;;;9.90;;
70450;SDS011;58869;51.982;4.450;2023-05-07T11:55:46;11.07;;;11.07;;
70450;SDS011;58869;51.982;4.450;2023-05-07T11:58:12;11.91;;;11.91;;
70450;SDS011;58869;51.982;4.450;2023-05-07T12:00:59;11.45;;;11.45;;
70450;SDS011;58869;51.982;4.450;2023-05-07T12:03:24;11.81;;;11.81;;
70450;SDS011;58869;51.982;4.450;2023-05-07T12:05:50;13.06;;;13.06;;
70450;SDS011;58869;51.982;4.450;2023-05-07T12:08:16;11.92;;;11.92;;
70450;SDS011;58869;51.982;4.450;2023-05-07T12:10:48;12.01;;;12.01;;
70450;SDS011;58869;51.982;4.450;2023-05-07T12:13:22;12.55;;;12.55;;
70450;SDS011;58869;51.982;4.450;2023-05-07T12:15:55;12.49;;;12.49;;
70450;SDS011;58869;51.982;4.450;2023-05-07T12:18:28;12.12;;;12.12;;
70450;SDS011;58869;51.982;4.450;2023-05-07T12:21:31;11.73;;;11.73;;
70450;SDS011;58869;51.982;4.450;2023-05-07T12:24:07;11.30;;;11.30;;
70450;SDS011;58869;51.982;4.450;2023-05-07T12:26:39;10.43;;;10.43;;
70450;SDS011;58869;51.982;4.450;2023-05-07T12:29:24;15.89;;;15.89;;
70450;SDS011;58869;51.982;4.450;2023-05-07T12:31:51;17.90;;;17.90;;
70450;SDS011;58869;51.982;4.450;2023-05-07T12:34:23;19.66;;;19.66;;
70450;SDS011;58869;51.982;4.450;2023-05-07T12:36:58;19.17;;;19.17;;
70450;SDS011;58869;51.982;4.450;2023-05-07T12:39:27;21.02;;;21.02;;
70450;SDS011;58869;51.982;4.450;2023-05-07T12:44:34;21.96;;;21.96;;
70450;SDS011;58869;51.982;4.450;2023-05-07T12:47:02;21.76;;;21.76;;
70450;SDS011;58869;51.982;4.450;2023-05-07T12:50:10;21.28;;;21.28;;
70450;SDS011;58869;51.982;4.450;2023-05-07T12:52:48;20.67;;;20.67;;
70450;SDS011;58869;51.982;4.450;2023-05-07T12:55:15;19.46;;;19.46;;
70450;SDS011;58869;51.982;4.450;2023-05-07T12:57:56;19.27;;;19.27;;
70450;SDS011;58869;51.982;4.450;2023-05-07T13:05:59;21.95;;;21.95;;
70450;SDS011;58869;51.982;4.450;2023-05-07T13:08:43;23.76;;;23.76;;
70450;SDS011;58869;51.982;4.450;2023-05-07T13:11:09;24.35;;;24.35;;
70450;SDS011;58869;51.982;4.450;2023-05-07T13:13:45;25.37;;;25.37;;
70450;SDS011;58869;51.982;4.450;2023-05-07T13:16:11;26.56;;;26.56;;
70450;SDS011;58869;51.982;4.450;2023-05-07T13:18:38;26.62;;;26.62;;
70450;SDS011;58869;51.982;4.450;2023-05-07T13:21:08;27.10;;;27.10;;
70450;SDS011;58869;51.982;4.450;2023-05-07T13:23:35;27.08;;;27.08;;
70450;SDS011;58869;51.982;4.450;2023-05-07T13:26:00;27.06;;;27.06;;
70450;SDS011;58869;51.982;4.450;2023-05-07T13:28:26;27.26;;;27.26;;
70450;SDS011;58869;51.982;4.450;2023-05-07T13:30:51;27.09;;;27.09;;
70450;SDS011;58869;51.982;4.450;2023-05-07T13:33:20;27.30;;;27.30;;
70450;SDS011;58869;51.982;4.450;2023-05-07T13:35:45;26.66;;;26.66;;
70450;SDS011;58869;51.982;4.450;2023-05-07T13:38:11;26.88;;;26.88;;
70450;SDS011;58869;51.982;4.450;2023-05-07T13:40:36;25.95;;;25.95;;
70450;SDS011;58869;51.982;4.450;2023-05-07T13:43:02;26.30;;;26.30;;
70450;SDS011;58869;51.982;4.450;2023-05-07T13:45:28;26.28;;;26.28;;
70450;SDS011;58869;51.982;4.450;2023-05-07T13:47:58;26.69;;;26.69;;
70450;SDS011;58869;51.982;4.450;2023-05-07T13:50:23;26.37;;;26.37;;
70450;SDS011;58869;51.982;4.450;2023-05-07T13:52:49;25.95;;;25.95;;
70450;SDS011;58869;51.982;4.450;2023-05-07T13:55:17;25.79;;;25.79;;
70450;SDS011;58869;51.982;4.450;2023-05-07T13:57:43;26.16;;;26.16;;
70450;SDS011;58869;51.982;4.450;2023-05-07T14:00:10;25.22;;;25.22;;
70450;SDS011;58869;51.982;4.450;2023-05-07T14:02:36;25.07;;;25.07;;
70450;SDS011;58869;51.982;4.450;2023-05-07T14:05:02;25.45;;;25.45;;
70450;SDS011;58869;51.982;4.450;2023-05-07T14:07:27;25.11;;;25.11;;
70450;SDS011;58869;51.982;4.450;2023-05-07T14:09:53;25.36;;;25.36;;
70450;SDS011;58869;51.982;4.450;2023-05-07T14:12:19;25.00;;;25.00;;
70450;SDS011;58869;51.982;4.450;2023-05-07T14:14:45;24.79;;;24.79;;
70450;SDS011;58869;51.982;4.450;2023-05-07T14:17:12;25.42;;;25.42;;
70450;SDS011;58869;51.982;4.450;2023-05-07T14:19:37;23.97;;;23.97;;
70450;SDS011;58869;51.982;4.450;2023-05-07T14:22:05;23.77;;;23.77;;
70450;SDS011;58869;51.982;4.450;2023-05-07T14:24:33;23.17;;;23.17;;
70450;SDS011;58869;51.982;4.450;2023-05-07T14:27:01;23.36;;;23.36;;
70450;SDS011;58869;51.982;4.450;2023-05-07T14:29:27;23.45;;;23.45;;
70450;SDS011;58869;51.982;4.450;2023-05-07T14:31:53;25.12;;;25.12;;
70450;SDS011;58869;51.982;4.450;2023-05-07T14:34:18;24.66;;;24.66;;
70450;SDS011;58869;51.982;4.450;2023-05-07T14:36:44;23.61;;;23.61;;
70450;SDS011;58869;51.982;4.450;2023-05-07T14:39:09;24.20;;;24.20;;
70450;SDS011;58869;51.982;4.450;2023-05-07T14:41:35;24.39;;;24.39;;
70450;SDS011;58869;51.982;4.450;2023-05-07T14:44:00;25.90;;;25.90;;
70450;SDS011;58869;51.982;4.450;2023-05-07T14:46:28;25.95;;;25.95;;
70450;SDS011;58869;51.982;4.450;2023-05-07T14:48:54;25.98;;;25.98;;
70450;SDS011;58869;51.982;4.450;2023-05-07T14:51:20;26.66;;;26.66;;
70450;SDS011;58869;51.982;4.450;2023-05-07T14:53:45;26.11;;;26.11;;
70450;SDS011;58869;51.982;4.450;2023-05-07T14:56:11;25.84;;;25.84;;
70450;SDS011;58869;51.982;4.450;2023-05-07T14:58:37;25.61;;;25.61;;
70450;SDS011;58869;51.982;4.450;2023-05-07T15:01:06;26.51;;;26.51;;
70450;SDS011;58869;51.982;4.450;2023-05-07T15:03:31;27.41;;;27.41;;
70450;SDS011;58869;51.982;4.450;2023-05-07T15:05:57;27.87;;;27.87;;
70450;SDS011;58869;51.982;4.450;2023-05-07T15:08:22;28.36;;;28.36;;
70450;SDS011;58869;51.982;4.450;2023-05-07T15:10:48;28.76;;;28.76;;
70450;SDS011;58869;51.982;4.450;2023-05-07T15:13:13;26.61;;;26.61;;
70450;SDS011;58869;51.982;4.450;2023-05-07T15:15:39;29.52;;;29.52;;
70450;SDS011;58869;51.982;4.450;2023-05-07T15:18:04;29.26;;;29.26;;
70450;SDS011;58869;51.982;4.450;2023-05-07T15:20:30;29.94;;;29.94;;
70450;SDS011;58869;51.982;4.450;2023-05-07T15:22:55;29.62;;;29.62;;
70450;SDS011;58869;51.982;4.450;2023-05-07T15:25:21;30.15;;;30.15;;
70450;SDS011;58869;51.982;4.450;2023-05-07T15:27:47;30.85;;;30.85;;
70450;SDS011;58869;51.982;4.450;2023-05-07T15:30:13;29.73;;;29.73;;
70450;SDS011;58869;51.982;4.450;2023-05-07T15:32:40;29.45;;;29.45;;
70450;SDS011;58869;51.982;4.450;2023-05-07T15:35:06;28.62;;;28.62;;
70450;SDS011;58869;51.982;4.450;2023-05-07T15:37:32;28.57;;;28.57;;
70450;SDS011;58869;51.982;4.450;2023-05-07T15:39:58;29.03;;;29.03;;
70450;SDS011;58869;51.982;4.450;2023-05-07T15:42:24;29.74;;;29.74;;
70450;SDS011;58869;51.982;4.450;2023-05-07T15:44:50;29.11;;;29.11;;
70450;SDS011;58869;51.982;4.450;2023-05-07T15:47:16;28.50;;;28.50;;
70450;SDS011;58869;51.982;4.450;2023-05-07T15:49:42;28.30;;;28.30;;
70450;SDS011;58869;51.982;4.450;2023-05-07T15:52:07;28.98;;;28.98;;
70450;SDS011;58869;51.982;4.450;2023-05-07T15:54:35;27.92;;;27.92;;
70450;SDS011;58869;51.982;4.450;2023-05-07T15:57:02;28.47;;;28.47;;
70450;SDS011;58869;51.982;4.450;2023-05-07T15:59:28;27.95;;;27.95;;
70450;SDS011;58869;51.982;4.450;2023-05-07T16:01:54;27.62;;;27.62;;
70450;SDS011;58869;51.982;4.450;2023-05-07T16:04:20;27.72;;;27.72;;